createdAt,value
2023-05-25T00:01:02.546Z,4.03
2023-05-25T00:03:31.397Z,4.33
2023-05-25T00:05:58.841Z,3.87
2023-05-25T00:08:25.376Z,4.10
2023-05-25T00:10:52.039Z,4.27
2023-05-25T00:13:18.595Z,4.03
2023-05-25T00:15:45.464Z,4.00
2023-05-25T00:18:13.068Z,4.30
2023-05-25T00:20:39.711Z,4.03
2023-05-25T00:23:06.363Z,3.70
2023-05-25T00:25:32.891Z,3.70
2023-05-25T00:27:59.362Z,3.63
2023-05-25T00:30:26.015Z,4.07
2023-05-25T00:32:54.024Z,4.13
2023-05-25T00:35:20.660Z,4.63
2023-05-25T00:37:47.586Z,3.80
2023-05-25T00:40:16.551Z,3.80
2023-05-25T00:42:43.989Z,4.13
2023-05-25T00:45:11.282Z,4.00
2023-05-25T00:47:39.652Z,3.90
2023-05-25T00:50:10.152Z,4.13
2023-05-25T00:52:36.826Z,4.07
2023-05-25T00:55:04.226Z,4.20
2023-05-25T00:57:34.147Z,3.60
2023-05-25T01:00:02.323Z,3.73
2023-05-25T01:02:29.587Z,3.70
2023-05-25T01:05:00.998Z,3.27
2023-05-25T01:07:27.873Z,3.90
2023-05-25T01:09:58.636Z,4.00
2023-05-25T01:12:28.915Z,3.63
2023-05-25T01:14:56.007Z,3.87
2023-05-25T01:17:26.548Z,3.80
2023-05-25T01:20:08.989Z,3.43
2023-05-25T01:22:43.110Z,4.03
2023-05-25T01:25:22.608Z,3.80
2023-05-25T01:27:57.153Z,3.83
2023-05-25T01:30:26.369Z,3.47
2023-05-25T01:32:54.454Z,3.67
2023-05-25T01:35:21.810Z,3.67
2023-05-25T01:37:51.620Z,3.53
2023-05-25T01:40:18.122Z,3.63
2023-05-25T01:42:44.673Z,3.33
2023-05-25T01:45:13.425Z,3.70
2023-05-25T01:48:03.444Z,4.07
2023-05-25T01:50:40.776Z,3.83
2023-05-25T01:53:13.634Z,3.10
2023-05-25T01:55:49.959Z,3.50
2023-05-25T01:58:18.425Z,3.50
2023-05-25T02:00:48.080Z,4.00
2023-05-25T02:03:15.321Z,3.40
2023-05-25T02:05:42.405Z,3.87
2023-05-25T02:08:09.138Z,3.40
2023-05-25T02:10:35.709Z,3.67
2023-05-25T02:13:02.268Z,3.47
2023-05-25T02:15:32.971Z,3.83
2023-05-25T02:18:00.979Z,3.50
2023-05-25T02:20:30.711Z,3.23
2023-05-25T02:22:57.349Z,3.40
2023-05-25T02:25:23.831Z,4.17
2023-05-25T02:27:50.885Z,3.47
2023-05-25T02:30:18.162Z,3.60
2023-05-25T02:32:44.800Z,3.50
2023-05-25T02:35:12.369Z,3.47
2023-05-25T02:37:39.220Z,3.13
2023-05-25T02:40:07.970Z,3.53
2023-05-25T02:42:34.517Z,3.50
2023-05-25T02:45:01.126Z,3.60
2023-05-25T02:47:29.155Z,3.13
2023-05-25T02:49:55.756Z,3.63
2023-05-25T02:52:22.632Z,3.33
2023-05-25T02:54:49.385Z,3.43
2023-05-25T02:57:23.043Z,3.50
2023-05-25T02:59:51.077Z,3.57
2023-05-25T03:02:18.522Z,3.13
2023-05-25T03:04:46.042Z,3.77
2023-05-25T03:07:12.869Z,3.43
2023-05-25T03:09:39.645Z,3.43
2023-05-25T03:12:06.551Z,3.87
2023-05-25T03:14:33.176Z,3.33
2023-05-25T03:17:04.286Z,3.73
2023-05-25T03:19:32.332Z,3.73
2023-05-25T03:21:59.394Z,3.70
2023-05-25T03:24:26.980Z,3.50
2023-05-25T03:26:56.115Z,3.57
2023-05-25T03:29:22.761Z,3.60
2023-05-25T03:31:49.378Z,3.80
2023-05-25T03:34:17.678Z,3.67
2023-05-25T03:36:45.981Z,3.40
2023-05-25T03:39:13.661Z,3.63
2023-05-25T03:41:40.268Z,3.67
2023-05-25T03:44:07.688Z,3.67
2023-05-25T03:46:34.346Z,3.67
2023-05-25T03:49:00.985Z,3.63
2023-05-25T03:51:29.345Z,4.60
2023-05-25T03:53:56.040Z,3.73
2023-05-25T03:56:23.924Z,4.07
2023-05-25T03:58:50.431Z,3.70
2023-05-25T04:01:18.350Z,3.40
2023-05-25T04:03:44.978Z,3.90
2023-05-25T04:06:11.673Z,4.17
2023-05-25T04:08:40.942Z,3.80
2023-05-25T04:11:07.457Z,3.90
2023-05-25T04:13:36.303Z,4.03
2023-05-25T04:16:03.541Z,4.23
2023-05-25T04:18:32.312Z,3.93
2023-05-25T04:20:59.579Z,4.10
2023-05-25T04:23:26.790Z,3.93
2023-05-25T04:25:54.416Z,4.17
2023-05-25T04:28:20.933Z,4.30
2023-05-25T04:30:59.562Z,4.40
2023-05-25T04:33:38.684Z,4.20
2023-05-25T04:36:38.742Z,4.20
2023-05-25T04:39:07.361Z,3.97
2023-05-25T04:41:37.759Z,4.07
2023-05-25T04:44:10.561Z,4.57
2023-05-25T04:46:49.042Z,4.37
2023-05-25T04:49:21.664Z,3.57
2023-05-25T04:51:48.491Z,4.33
2023-05-25T04:54:15.801Z,3.77
2023-05-25T04:56:43.036Z,3.87
2023-05-25T04:59:09.795Z,3.60
2023-05-25T05:01:40.870Z,3.77
2023-05-25T05:04:09.010Z,3.93
2023-05-25T05:06:36.699Z,3.63
2023-05-25T05:09:03.703Z,4.20
2023-05-25T05:11:30.638Z,3.93
2023-05-25T05:13:59.236Z,3.73
2023-05-25T05:16:25.986Z,3.87
2023-05-25T05:18:53.285Z,4.37
2023-05-25T05:21:21.402Z,3.20
2023-05-25T05:23:49.591Z,4.03
2023-05-25T05:26:16.516Z,3.77
2023-05-25T05:28:43.084Z,3.73
2023-05-25T05:31:12.121Z,3.70
2023-05-25T05:33:39.500Z,3.30
2023-05-25T05:36:06.715Z,3.30
2023-05-25T05:38:38.792Z,3.70
2023-05-25T05:41:13.287Z,3.23
2023-05-25T05:43:42.388Z,3.30
2023-05-25T05:46:10.548Z,3.03
2023-05-25T05:48:37.971Z,3.23
2023-05-25T05:51:05.864Z,2.93
2023-05-25T05:53:33.705Z,3.17
2023-05-25T05:56:00.312Z,3.10
2023-05-25T05:58:26.899Z,2.97
2023-05-25T06:00:54.597Z,2.83
2023-05-25T06:03:21.635Z,3.27
2023-05-25T06:05:48.423Z,2.70
2023-05-25T06:08:16.098Z,2.83
2023-05-25T06:10:42.830Z,2.97
2023-05-25T06:13:09.487Z,2.67
2023-05-25T06:15:36.192Z,2.53
2023-05-25T06:18:07.858Z,2.90
2023-05-25T06:20:35.547Z,2.70
2023-05-25T06:23:02.395Z,3.23
2023-05-25T06:25:29.156Z,2.70
2023-05-25T06:27:57.310Z,2.43
2023-05-25T06:30:24.021Z,2.70
2023-05-25T06:32:51.969Z,2.00
2023-05-25T06:35:25.020Z,1.73
2023-05-25T06:37:52.822Z,2.30
2023-05-25T06:40:20.425Z,1.90
2023-05-25T06:42:47.054Z,2.27
2023-05-25T06:45:37.960Z,1.93
2023-05-25T06:48:05.333Z,2.60
2023-05-25T06:50:31.923Z,2.23
2023-05-25T06:53:00.336Z,2.20
2023-05-25T06:55:27.055Z,2.00
2023-05-25T06:57:53.602Z,2.60
2023-05-25T07:00:21.472Z,2.40
2023-05-25T07:02:48.068Z,2.37
2023-05-25T07:05:15.129Z,2.70
2023-05-25T07:07:41.819Z,2.50
2023-05-25T07:10:09.167Z,2.80
2023-05-25T07:12:35.748Z,2.40
2023-05-25T07:15:02.427Z,2.50
2023-05-25T07:17:28.989Z,2.47
2023-05-25T07:19:55.649Z,2.37
2023-05-25T07:22:23.645Z,2.70
2023-05-25T07:24:50.300Z,2.60
2023-05-25T07:27:16.936Z,2.27
2023-05-25T07:29:43.444Z,2.27
2023-05-25T07:32:09.938Z,2.23
2023-05-25T07:34:36.513Z,2.47
2023-05-25T07:37:03.107Z,2.57
2023-05-25T07:39:29.689Z,2.67
2023-05-25T07:41:56.177Z,2.40
2023-05-25T07:44:22.671Z,2.83
2023-05-25T07:46:49.226Z,2.13
2023-05-25T07:49:16.343Z,2.47
2023-05-25T07:51:44.733Z,2.10
2023-05-25T07:54:11.848Z,2.80
2023-05-25T07:56:38.963Z,2.63
2023-05-25T07:59:06.087Z,2.23
2023-05-25T08:01:32.593Z,2.37
2023-05-25T08:03:59.398Z,2.03
2023-05-25T08:06:26.065Z,2.50
2023-05-25T08:08:52.595Z,2.60
2023-05-25T08:11:23.954Z,2.47
2023-05-25T08:13:51.116Z,2.73
2023-05-25T08:16:18.874Z,2.30
2023-05-25T08:18:46.930Z,2.43
2023-05-25T08:21:13.814Z,2.53
2023-05-25T08:23:42.386Z,2.40
2023-05-25T08:26:25.975Z,2.80
2023-05-25T08:28:57.015Z,4.17
2023-05-25T08:31:23.628Z,3.80
2023-05-25T08:33:50.183Z,2.27
2023-05-25T08:36:16.701Z,2.17
2023-05-25T08:38:43.207Z,2.50
2023-05-25T08:41:12.018Z,2.97
2023-05-25T08:43:38.601Z,2.83
2023-05-25T08:46:07.054Z,4.90
2023-05-25T08:48:41.856Z,2.67
2023-05-25T08:51:11.677Z,4.07
2023-05-25T08:53:43.410Z,2.40
2023-05-25T08:56:34.248Z,2.23
2023-05-25T08:59:14.576Z,3.07
2023-05-25T09:01:46.012Z,2.83
2023-05-25T09:04:19.482Z,2.53
2023-05-25T09:06:57.180Z,2.77
2023-05-25T09:09:35.104Z,3.03
2023-05-25T09:12:02.417Z,2.20
2023-05-25T09:14:29.051Z,2.17
2023-05-25T09:16:55.654Z,2.67
2023-05-25T09:19:22.192Z,2.60
2023-05-25T09:21:49.394Z,2.20
2023-05-25T09:24:18.498Z,2.50
2023-05-25T09:26:48.796Z,3.10
2023-05-25T09:29:16.531Z,2.70
2023-05-25T09:31:43.388Z,2.50
2023-05-25T09:34:14.132Z,2.50
2023-05-25T09:36:41.925Z,3.03
2023-05-25T09:39:12.635Z,2.40
2023-05-25T09:41:43.210Z,2.53
2023-05-25T09:44:11.706Z,2.40
2023-05-25T09:46:39.301Z,3.53
2023-05-25T09:49:08.811Z,2.97
2023-05-25T09:51:36.629Z,2.83
2023-05-25T09:54:04.897Z,3.00
2023-05-25T09:56:33.510Z,2.63
2023-05-25T09:59:00.162Z,3.20
2023-05-25T10:01:27.313Z,2.53
2023-05-25T10:04:04.176Z,2.70
2023-05-25T10:06:33.437Z,2.73
2023-05-25T10:09:01.315Z,2.70
2023-05-25T10:11:29.232Z,3.10
2023-05-25T10:13:56.737Z,2.60
2023-05-25T10:16:29.272Z,2.70
2023-05-25T10:19:34.678Z,2.80
2023-05-25T10:22:19.974Z,3.07
2023-05-25T10:24:58.568Z,2.60
2023-05-25T10:27:29.450Z,2.40
2023-05-25T10:29:57.618Z,2.80
2023-05-25T10:32:24.830Z,2.53
2023-05-25T10:34:52.578Z,2.90
2023-05-25T10:37:19.661Z,2.23
2023-05-25T10:39:46.515Z,2.40
2023-05-25T10:42:13.295Z,2.50
2023-05-25T10:44:42.089Z,2.87
2023-05-25T10:47:09.456Z,2.33
2023-05-25T10:49:53.307Z,2.37
2023-05-25T10:52:20.470Z,2.00
2023-05-25T10:54:48.350Z,2.10
2023-05-25T10:57:20.459Z,2.03
2023-05-25T10:59:59.604Z,1.80
2023-05-25T11:02:29.938Z,1.73
2023-05-25T11:05:28.875Z,2.50
2023-05-25T11:07:57.046Z,2.30
2023-05-25T11:10:51.041Z,2.57
2023-05-25T11:13:41.303Z,2.20
2023-05-25T11:16:27.093Z,2.30
2023-05-25T11:18:57.883Z,2.27
2023-05-25T11:21:27.416Z,2.60
2023-05-25T11:24:06.672Z,2.23
2023-05-25T11:26:34.660Z,2.50
2023-05-25T11:29:12.020Z,2.60
2023-05-25T11:31:42.470Z,2.30
2023-05-25T11:34:12.211Z,2.50
2023-05-25T11:36:39.188Z,2.00
2023-05-25T11:39:11.445Z,2.50
2023-05-25T11:41:55.344Z,2.20
2023-05-25T11:44:33.618Z,2.50
2023-05-25T11:47:14.759Z,2.67
2023-05-25T11:49:42.392Z,2.60
2023-05-25T11:52:09.435Z,2.50
2023-05-25T11:54:36.482Z,2.60
2023-05-25T11:57:03.644Z,2.57
2023-05-25T11:59:32.403Z,2.50
2023-05-25T12:02:04.166Z,2.37
2023-05-25T12:04:34.891Z,3.07
2023-05-25T12:07:06.362Z,2.47
2023-05-25T12:09:33.582Z,2.70
2023-05-25T12:12:03.062Z,4.47
2023-05-25T12:14:30.180Z,2.50
2023-05-25T12:16:57.870Z,2.30
2023-05-25T12:19:24.637Z,2.40
2023-05-25T12:21:51.795Z,3.37
2023-05-25T12:24:19.085Z,2.40
2023-05-25T12:26:49.613Z,2.57
2023-05-25T12:29:16.545Z,3.33
2023-05-25T12:31:43.348Z,3.03
2023-05-25T12:34:18.079Z,3.93
2023-05-25T12:36:54.647Z,3.10
2023-05-25T12:39:24.639Z,2.67
2023-05-25T12:41:54.756Z,2.40
2023-05-25T12:44:28.778Z,2.60
2023-05-25T12:46:56.536Z,2.53
2023-05-25T12:49:34.275Z,2.10
2023-05-25T12:52:02.752Z,2.27
2023-05-25T12:54:46.452Z,2.43
2023-05-25T12:57:14.842Z,2.00
2023-05-25T12:59:43.595Z,2.40
2023-05-25T13:02:10.944Z,2.60
2023-05-25T13:04:39.402Z,2.63
2023-05-25T13:07:08.483Z,2.53
2023-05-25T13:09:35.191Z,2.30
2023-05-25T13:12:04.649Z,2.83
2023-05-25T13:14:31.260Z,2.50
2023-05-25T13:16:57.870Z,2.60
2023-05-25T13:19:25.822Z,2.70
2023-05-25T13:21:53.095Z,2.60
2023-05-25T13:24:19.756Z,2.60
2023-05-25T13:26:48.205Z,2.57
2023-05-25T13:29:16.532Z,2.70
2023-05-25T13:31:43.550Z,2.80
2023-05-25T13:34:10.245Z,2.57
2023-05-25T13:36:36.759Z,3.17
2023-05-25T13:39:05.232Z,2.67
2023-05-25T13:41:31.817Z,3.40
2023-05-25T13:43:58.363Z,3.27
2023-05-25T13:46:34.184Z,2.97
2023-05-25T13:49:02.015Z,3.17
2023-05-25T13:51:28.513Z,2.60
2023-05-25T13:53:55.047Z,3.10
2023-05-25T13:56:22.273Z,3.07
2023-05-25T13:58:48.794Z,2.87
2023-05-25T14:01:15.651Z,2.60
2023-05-25T14:03:42.687Z,2.70
2023-05-25T14:06:09.435Z,2.63
2023-05-25T14:08:35.977Z,2.60
2023-05-25T14:11:02.980Z,2.60
2023-05-25T14:13:29.953Z,2.80
2023-05-25T14:15:56.644Z,2.67
2023-05-25T14:18:23.292Z,2.67
2023-05-25T14:20:50.013Z,2.80
2023-05-25T14:23:18.426Z,3.00
2023-05-25T14:25:46.609Z,2.53
2023-05-25T14:28:13.496Z,3.00
2023-05-25T14:30:40.103Z,2.73
2023-05-25T14:33:06.726Z,3.23
2023-05-25T14:35:33.312Z,3.07
2023-05-25T14:37:59.909Z,3.30
2023-05-25T14:40:26.516Z,2.90
2023-05-25T14:42:55.487Z,3.10
2023-05-25T14:45:22.148Z,2.83
2023-05-25T14:47:49.055Z,2.93
2023-05-25T14:50:15.956Z,3.20
2023-05-25T14:52:42.985Z,3.70
2023-05-25T14:55:09.891Z,3.53
2023-05-25T14:57:36.712Z,3.40
2023-05-25T15:00:04.412Z,3.07
2023-05-25T15:02:31.187Z,3.30
2023-05-25T15:04:58.585Z,2.97
2023-05-25T15:07:25.239Z,3.40
2023-05-25T15:09:51.863Z,3.20
2023-05-25T15:12:18.383Z,3.10
2023-05-25T15:14:44.869Z,2.83
2023-05-25T15:17:11.452Z,2.90
2023-05-25T15:19:38.005Z,3.40
2023-05-25T15:22:04.813Z,3.30
2023-05-25T15:24:31.492Z,3.40
2023-05-25T15:26:58.097Z,3.57
2023-05-25T15:29:24.692Z,3.20
2023-05-25T15:31:53.627Z,3.20
2023-05-25T15:34:21.577Z,3.40
2023-05-25T15:36:48.472Z,3.30
2023-05-25T15:39:15.591Z,3.57
2023-05-25T15:41:43.008Z,3.40
2023-05-25T15:44:12.577Z,3.03
2023-05-25T15:46:40.452Z,3.43
2023-05-25T15:49:11.258Z,3.00
2023-05-25T15:51:41.431Z,3.03
2023-05-25T15:54:10.475Z,3.37
2023-05-25T15:56:38.599Z,3.43
2023-05-25T15:59:05.863Z,2.83
2023-05-25T16:01:34.474Z,3.53
2023-05-25T16:04:01.457Z,3.13
2023-05-25T16:06:28.103Z,2.70
2023-05-25T16:08:54.776Z,3.00
2023-05-25T16:11:22.133Z,3.13
2023-05-25T16:13:48.611Z,3.43
2023-05-25T16:16:15.355Z,2.87
2023-05-25T16:18:41.957Z,3.33
2023-05-25T16:21:08.492Z,3.13
2023-05-25T16:23:35.017Z,2.80
2023-05-25T16:26:01.540Z,3.10
2023-05-25T16:28:28.072Z,3.30
2023-05-25T16:30:54.652Z,3.33
2023-05-25T16:33:21.147Z,2.73
2023-05-25T16:35:47.803Z,3.00
2023-05-25T16:38:14.316Z,3.27
2023-05-25T16:40:40.864Z,2.83
2023-05-25T16:43:07.457Z,3.03
2023-05-25T16:45:34.376Z,3.27
2023-05-25T16:48:00.913Z,3.10
2023-05-25T16:50:27.445Z,2.97
2023-05-25T16:52:53.992Z,3.00
2023-05-25T16:55:21.296Z,2.93
2023-05-25T16:57:47.874Z,3.43
2023-05-25T17:00:14.957Z,3.20
2023-05-25T17:02:42.592Z,3.27
2023-05-25T17:05:09.767Z,3.00
2023-05-25T17:07:37.561Z,3.07
2023-05-25T17:10:04.554Z,3.17
2023-05-25T17:12:31.411Z,3.30
2023-05-25T17:14:57.897Z,3.20
2023-05-25T17:17:27.946Z,3.53
2023-05-25T17:19:54.875Z,3.00
2023-05-25T17:22:21.599Z,3.30
2023-05-25T17:24:48.112Z,3.50
2023-05-25T17:27:14.646Z,3.33
2023-05-25T17:29:41.957Z,2.90
2023-05-25T17:32:11.146Z,3.00
2023-05-25T17:34:37.776Z,2.97
2023-05-25T17:37:04.530Z,2.90
2023-05-25T17:39:31.496Z,3.03
2023-05-25T17:41:58.326Z,3.17
2023-05-25T17:44:26.014Z,3.00
2023-05-25T17:46:52.676Z,2.80
2023-05-25T17:49:19.276Z,3.00
2023-05-25T17:51:46.060Z,2.97
2023-05-25T17:54:18.595Z,2.93
2023-05-25T17:56:46.409Z,3.40
2023-05-25T17:59:13.213Z,3.13
2023-05-25T18:01:40.735Z,3.00
2023-05-25T18:04:07.589Z,3.40
2023-05-25T18:06:34.647Z,3.00
2023-05-25T18:09:01.447Z,3.37
2023-05-25T18:11:32.312Z,3.13
2023-05-25T18:14:04.869Z,3.10
2023-05-25T18:16:31.762Z,2.93
2023-05-25T18:18:58.598Z,3.00
2023-05-25T18:21:25.370Z,3.47
2023-05-25T18:23:52.012Z,3.07
2023-05-25T18:26:18.501Z,3.60
2023-05-25T18:28:45.365Z,3.27
2023-05-25T18:31:12.369Z,3.43
2023-05-25T18:33:44.678Z,3.57
2023-05-25T18:36:11.612Z,3.23
2023-05-25T18:38:38.238Z,3.30
2023-05-25T18:41:05.026Z,3.50
2023-05-25T18:43:31.636Z,4.00
2023-05-25T18:45:58.230Z,3.83
2023-05-25T18:48:25.860Z,3.83
2023-05-25T18:50:52.511Z,4.00
2023-05-25T18:53:19.056Z,4.00
2023-05-25T18:55:45.930Z,3.80
2023-05-25T18:58:13.122Z,3.50
2023-05-25T19:00:40.204Z,3.57
2023-05-25T19:03:07.052Z,3.80
2023-05-25T19:05:33.907Z,3.73
2023-05-25T19:08:00.649Z,3.40
2023-05-25T19:10:27.666Z,3.60
2023-05-25T19:12:54.307Z,3.80
2023-05-25T19:15:21.162Z,3.33
2023-05-25T19:17:48.097Z,3.63
2023-05-25T19:20:18.214Z,3.67
2023-05-25T19:22:45.061Z,3.70
2023-05-25T19:25:11.841Z,4.00
2023-05-25T19:27:38.817Z,3.30
2023-05-25T19:30:05.994Z,4.00
2023-05-25T19:32:35.837Z,3.87
2023-05-25T19:35:02.640Z,4.30
2023-05-25T19:37:29.129Z,4.30
2023-05-25T19:39:55.683Z,4.13
2023-05-25T19:42:22.204Z,3.77
2023-05-25T19:44:48.768Z,4.00
2023-05-25T19:47:15.405Z,4.17
2023-05-25T19:49:42.720Z,4.10
2023-05-25T19:52:09.251Z,4.20
2023-05-25T19:54:35.924Z,4.13
2023-05-25T19:57:02.815Z,4.57
2023-05-25T19:59:30.227Z,5.00
2023-05-25T20:01:57.040Z,5.57
2023-05-25T20:04:23.804Z,5.30
2023-05-25T20:06:50.790Z,5.80
2023-05-25T20:09:17.720Z,4.97
2023-05-25T20:11:44.272Z,4.93
2023-05-25T20:14:10.788Z,5.37
2023-05-25T20:16:37.429Z,5.10
2023-05-25T20:19:07.311Z,5.23
2023-05-25T20:21:34.302Z,4.97
2023-05-25T20:24:01.262Z,5.90
2023-05-25T20:26:27.926Z,6.10
2023-05-25T20:28:54.459Z,5.60
2023-05-25T20:31:21.120Z,5.60
2023-05-25T20:33:47.737Z,5.17
2023-05-25T20:36:15.662Z,5.33
2023-05-25T20:38:45.092Z,5.20
2023-05-25T20:41:12.059Z,4.73
2023-05-25T20:43:38.559Z,5.37
2023-05-25T20:46:07.547Z,5.20
2023-05-25T20:48:34.237Z,5.17
2023-05-25T20:51:00.833Z,4.93
2023-05-25T20:53:27.385Z,4.33
2023-05-25T20:55:53.857Z,4.40
2023-05-25T20:58:20.396Z,4.73
2023-05-25T21:00:46.877Z,4.77
2023-05-25T21:03:13.435Z,5.00
2023-05-25T21:05:40.091Z,4.97
2023-05-25T21:08:06.781Z,4.70
2023-05-25T21:10:33.361Z,5.03
2023-05-25T21:12:59.899Z,5.30
2023-05-25T21:15:26.936Z,4.70
2023-05-25T21:17:53.532Z,5.03
2023-05-25T21:20:20.526Z,5.37
2023-05-25T21:22:47.123Z,4.87
2023-05-25T21:25:13.649Z,5.20
2023-05-25T21:27:40.385Z,5.53
2023-05-25T21:30:07.509Z,5.43
2023-05-25T21:32:34.061Z,5.30
2023-05-25T21:35:00.742Z,5.03
2023-05-25T21:37:28.037Z,5.53
2023-05-25T21:39:54.548Z,5.53
2023-05-25T21:42:21.062Z,5.77
2023-05-25T21:44:47.623Z,5.40
2023-05-25T21:47:14.311Z,5.53
2023-05-25T21:49:40.966Z,5.77
2023-05-25T21:52:18.068Z,5.10
2023-05-25T21:54:44.575Z,5.60
2023-05-25T21:57:11.084Z,5.17
2023-05-25T21:59:37.589Z,5.47
2023-05-25T22:02:04.385Z,5.33
2023-05-25T22:04:31.014Z,5.00
2023-05-25T22:06:57.695Z,5.40
2023-05-25T22:09:24.207Z,5.57
2023-05-25T22:11:50.770Z,5.77
2023-05-25T22:14:17.274Z,5.47
2023-05-25T22:16:43.802Z,5.43
2023-05-25T22:19:10.775Z,5.90
2023-05-25T22:21:37.872Z,5.60
2023-05-25T22:24:04.499Z,5.97
2023-05-25T22:26:30.991Z,5.40
2023-05-25T22:28:57.532Z,5.77
2023-05-25T22:31:25.647Z,5.73
2023-05-25T22:33:52.274Z,6.23
2023-05-25T22:36:18.800Z,6.63
2023-05-25T22:38:46.609Z,6.50
2023-05-25T22:41:13.110Z,5.80
2023-05-25T22:43:39.612Z,5.83
2023-05-25T22:46:06.160Z,6.50
2023-05-25T22:48:32.708Z,6.57
2023-05-25T22:50:59.174Z,6.50
2023-05-25T22:53:25.665Z,6.87
2023-05-25T22:55:52.318Z,7.10
2023-05-25T22:58:19.014Z,6.23
2023-05-25T23:00:45.660Z,6.40
2023-05-25T23:03:12.292Z,6.73
2023-05-25T23:05:38.977Z,6.57
2023-05-25T23:08:05.672Z,6.83
2023-05-25T23:10:32.194Z,6.73
2023-05-25T23:12:58.674Z,6.33
2023-05-25T23:15:25.191Z,7.40
2023-05-25T23:17:51.799Z,6.23
2023-05-25T23:20:18.448Z,6.70
2023-05-25T23:22:44.967Z,7.07
2023-05-25T23:25:11.491Z,6.50
2023-05-25T23:27:38.003Z,6.77
2023-05-25T23:30:06.735Z,7.03
2023-05-25T23:32:33.452Z,7.13
2023-05-25T23:34:59.975Z,6.73
2023-05-25T23:37:28.299Z,6.77
2023-05-25T23:39:54.861Z,7.40
2023-05-25T23:42:21.482Z,7.23
2023-05-25T23:44:48.004Z,6.30
2023-05-25T23:47:14.656Z,6.77
2023-05-25T23:49:41.153Z,6.50
2023-05-25T23:52:07.829Z,6.83
2023-05-25T23:54:34.421Z,6.83
2023-05-25T23:57:01.167Z,6.67
2023-05-25T23:59:27.673Z,6.40
